createdAt,value
2017-02-24T00:00:44.012Z,0
2017-02-24T00:01:43.998Z,0
2017-02-24T00:02:43.989Z,0
2017-02-24T00:03:43.971Z,0
2017-02-24T00:04:43.987Z,0
2017-02-24T00:05:43.956Z,0
2017-02-24T00:06:43.928Z,0
2017-02-24T00:07:43.533Z,0
2017-02-24T00:08:43.900Z,0
2017-02-24T00:09:43.912Z,0
2017-02-24T00:10:43.490Z,0
2017-02-24T00:11:43.875Z,0
2017-02-24T00:12:43.461Z,0
2017-02-24T00:13:43.834Z,0
2017-02-24T00:14:43.850Z,0
2017-02-24T00:15:43.818Z,0
2017-02-24T00:16:43.016Z,0
2017-02-24T00:17:43.389Z,0
2017-02-24T00:18:42.991Z,0
2017-02-24T00:19:43.754Z,0
2017-02-24T00:20:43.746Z,0
2017-02-24T00:21:42.972Z,0
2017-02-24T00:22:43.317Z,0
2017-02-24T00:23:43.733Z,0
2017-02-24T00:24:43.288Z,0
2017-02-24T00:25:43.681Z,0
2017-02-24T00:26:43.667Z,0
2017-02-24T00:27:43.665Z,0
2017-02-24T00:28:43.656Z,0
2017-02-24T00:29:43.619Z,0
2017-02-24T00:30:43.227Z,0
2017-02-24T00:31:43.610Z,0
2017-02-24T00:32:43.586Z,0
2017-02-24T00:33:43.574Z,0
2017-02-24T00:34:43.154Z,0
2017-02-24T00:35:43.168Z,0
2017-02-24T00:36:43.533Z,0
2017-02-24T00:37:43.520Z,0
2017-02-24T00:38:42.709Z,0
2017-02-24T00:39:43.091Z,0
2017-02-24T00:40:43.487Z,0
2017-02-24T00:41:43.464Z,0
2017-02-24T00:42:43.467Z,0
2017-02-24T00:43:43.454Z,0
2017-02-24T00:44:43.431Z,0
2017-02-24T00:45:43.428Z,0
2017-02-24T00:46:43.437Z,0
2017-02-24T00:47:43.380Z,0
2017-02-24T00:48:43.402Z,0
2017-02-24T00:49:43.360Z,0
2017-02-24T00:50:43.353Z,0
2017-02-24T00:51:43.340Z,0
2017-02-24T00:52:42.918Z,0
2017-02-24T00:53:43.320Z,0
2017-02-24T00:54:43.291Z,0
2017-02-24T00:55:42.479Z,0
2017-02-24T00:56:43.273Z,0
2017-02-24T00:57:43.246Z,0
2017-02-24T00:58:43.249Z,0
2017-02-24T00:59:42.422Z,0
2017-02-24T01:00:42.812Z,0
2017-02-24T01:01:43.200Z,0
2017-02-24T01:02:43.197Z,0
2017-02-24T01:03:43.201Z,0
2017-02-24T01:04:43.172Z,0
2017-02-24T01:05:43.158Z,0
2017-02-24T01:06:43.131Z,0
2017-02-24T01:07:43.114Z,0
2017-02-24T01:08:42.724Z,0
2017-02-24T01:09:43.117Z,0
2017-02-24T01:10:43.091Z,0
2017-02-24T01:11:43.062Z,0
2017-02-24T01:12:43.072Z,0
2017-02-24T01:13:43.047Z,0
2017-02-24T01:14:42.637Z,0
2017-02-24T01:15:43.020Z,0
2017-02-24T01:16:43.012Z,0
2017-02-24T01:17:42.995Z,0
2017-02-24T01:18:42.985Z,0
2017-02-24T01:19:42.964Z,0
2017-02-24T01:20:42.564Z,0
2017-02-24T01:21:42.965Z,0
2017-02-24T01:22:42.942Z,0
2017-02-24T01:23:42.935Z,0
2017-02-24T01:24:42.888Z,0
2017-02-24T01:25:42.878Z,0
2017-02-24T01:26:42.866Z,0
2017-02-24T01:27:42.067Z,0
2017-02-24T01:28:42.838Z,0
2017-02-24T01:29:42.822Z,0
2017-02-24T01:30:42.859Z,0
2017-02-24T01:31:42.789Z,0
2017-02-24T01:32:42.788Z,0
2017-02-24T01:33:42.767Z,0
2017-02-24T01:34:42.771Z,0
2017-02-24T01:35:41.956Z,0
2017-02-24T01:36:42.728Z,0
2017-02-24T01:37:42.713Z,0
2017-02-24T01:38:42.744Z,0
2017-02-24T01:39:42.695Z,0
2017-02-24T01:40:42.270Z,0
2017-02-24T01:41:42.662Z,0
2017-02-24T01:42:42.664Z,0
2017-02-24T01:43:42.640Z,0
2017-02-24T01:44:42.218Z,0
2017-02-24T01:45:42.215Z,0
2017-02-24T01:46:42.593Z,0
2017-02-24T01:47:42.596Z,0
2017-02-24T01:48:42.173Z,0
2017-02-24T01:49:42.150Z,0
2017-02-24T01:50:42.543Z,0
2017-02-24T01:51:42.538Z,0
2017-02-24T01:52:42.508Z,0
2017-02-24T01:53:42.091Z,0
2017-02-24T01:54:42.490Z,0
2017-02-24T01:55:42.475Z,0
2017-02-24T01:56:42.470Z,0
2017-02-24T01:57:42.484Z,0
2017-02-24T01:58:42.427Z,0
2017-02-24T01:59:42.414Z,0
2017-02-24T02:00:42.395Z,0
2017-02-24T02:01:42.389Z,0
2017-02-24T02:02:42.375Z,0
2017-02-24T02:03:42.370Z,0
2017-02-24T02:04:42.366Z,0
2017-02-24T02:05:42.338Z,0
2017-02-24T02:06:42.360Z,0
2017-02-24T02:07:42.319Z,0
2017-02-24T02:08:42.313Z,0
2017-02-24T02:09:42.277Z,0
2017-02-24T02:10:42.276Z,0
2017-02-24T02:11:42.248Z,0
2017-02-24T02:12:42.257Z,0
2017-02-24T02:13:42.221Z,0
2017-02-24T02:14:42.207Z,0
2017-02-24T02:15:42.193Z,0
2017-02-24T02:16:42.240Z,0
2017-02-24T02:17:42.164Z,0
2017-02-24T02:18:42.172Z,0
2017-02-24T02:19:42.160Z,0
2017-02-24T02:20:42.134Z,0
2017-02-24T02:21:42.132Z,0
2017-02-24T02:22:42.106Z,0
2017-02-24T02:23:42.101Z,0
2017-02-24T02:24:42.090Z,0
2017-02-24T02:25:42.079Z,0
2017-02-24T02:26:42.046Z,0
2017-02-24T02:27:42.036Z,0
2017-02-24T02:28:42.022Z,0
2017-02-24T02:29:42.011Z,0
2017-02-24T02:30:41.990Z,0
2017-02-24T02:31:41.982Z,0
2017-02-24T02:32:41.961Z,0
2017-02-24T02:33:41.955Z,0
2017-02-24T02:34:41.953Z,0
2017-02-24T02:35:41.936Z,0
2017-02-24T02:36:44.965Z,0
2017-02-24T02:37:43.418Z,0
2017-02-24T02:38:41.904Z,0
2017-02-24T02:39:41.881Z,0
2017-02-24T02:40:41.875Z,0
2017-02-24T02:41:41.850Z,0
2017-02-24T02:42:41.834Z,0
2017-02-24T02:43:41.819Z,0
2017-02-24T02:44:41.825Z,0
2017-02-24T02:45:41.820Z,0
2017-02-24T02:46:41.779Z,0
2017-02-24T02:47:41.774Z,0
2017-02-24T02:48:41.766Z,0
2017-02-24T02:49:41.753Z,0
2017-02-24T02:50:41.749Z,0
2017-02-24T02:51:41.718Z,0
2017-02-24T02:52:41.292Z,0
2017-02-24T02:53:41.683Z,0
2017-02-24T02:54:41.669Z,0
2017-02-24T02:55:41.657Z,0
2017-02-24T02:56:41.650Z,0
2017-02-24T02:57:41.643Z,0
2017-02-24T02:58:41.621Z,0
2017-02-24T02:59:41.611Z,0
2017-02-24T03:00:41.609Z,0
2017-02-24T03:01:41.177Z,0
2017-02-24T03:02:41.566Z,0
2017-02-24T03:03:41.161Z,0
2017-02-24T03:04:41.546Z,0
2017-02-24T03:05:41.545Z,0
2017-02-24T03:06:41.504Z,0
2017-02-24T03:07:41.489Z,0
2017-02-24T03:08:41.480Z,0
2017-02-24T03:09:41.062Z,0
2017-02-24T03:10:41.470Z,0
2017-02-24T03:11:41.472Z,0
2017-02-24T03:12:41.555Z,0
2017-02-24T03:13:41.957Z,0
2017-02-24T03:14:41.393Z,0
2017-02-24T03:15:41.488Z,0
2017-02-24T03:16:41.390Z,0
2017-02-24T03:17:41.352Z,0
2017-02-24T03:18:41.079Z,0
2017-02-24T03:19:41.456Z,0
2017-02-24T03:20:41.301Z,0
2017-02-24T03:21:41.304Z,0
2017-02-24T03:22:41.296Z,0
2017-02-24T03:23:41.283Z,0
2017-02-24T03:24:41.245Z,0
2017-02-24T03:25:41.246Z,0
2017-02-24T03:26:41.242Z,0
2017-02-24T03:27:41.206Z,0
2017-02-24T03:28:41.218Z,0
2017-02-24T03:29:41.187Z,0
2017-02-24T03:30:41.170Z,0
2017-02-24T03:31:41.158Z,0
2017-02-24T03:32:41.160Z,0
2017-02-24T03:33:41.147Z,0
2017-02-24T03:34:41.113Z,0
2017-02-24T03:35:41.093Z,0
2017-02-24T03:36:40.710Z,0
2017-02-24T03:37:41.076Z,0
2017-02-24T03:38:41.072Z,0
2017-02-24T03:39:41.061Z,0
2017-02-24T03:40:40.643Z,0
2017-02-24T03:41:40.641Z,0
2017-02-24T03:42:40.601Z,0
2017-02-24T03:43:40.994Z,0
2017-02-24T03:44:40.962Z,0
2017-02-24T03:45:40.986Z,0
2017-02-24T03:46:40.945Z,0
2017-02-24T03:47:40.930Z,0
2017-02-24T03:48:40.912Z,0
2017-02-24T03:49:40.504Z,0
2017-02-24T03:50:40.901Z,0
2017-02-24T03:51:40.874Z,0
2017-02-24T03:52:40.873Z,0
2017-02-24T03:53:40.841Z,0
2017-02-24T03:54:40.833Z,0
2017-02-24T03:55:40.828Z,0
2017-02-24T03:56:40.802Z,0
2017-02-24T03:57:40.800Z,0
2017-02-24T03:58:40.778Z,0
2017-02-24T03:59:40.751Z,0
2017-02-24T04:00:40.744Z,0
2017-02-24T04:01:40.727Z,0
2017-02-24T04:02:40.726Z,0
2017-02-24T04:03:40.328Z,0
2017-02-24T04:04:40.696Z,0
2017-02-24T04:05:40.682Z,0
2017-02-24T04:06:40.656Z,0
2017-02-24T04:07:40.639Z,0
2017-02-24T04:08:40.633Z,0
2017-02-24T04:09:40.622Z,0
2017-02-24T04:10:40.616Z,0
2017-02-24T04:11:40.590Z,0
2017-02-24T04:12:40.581Z,0
2017-02-24T04:13:40.564Z,0
2017-02-24T04:14:40.536Z,0
2017-02-24T04:15:40.542Z,0
2017-02-24T04:16:40.520Z,0
2017-02-24T04:17:40.513Z,0
2017-02-24T04:18:40.487Z,0
2017-02-24T04:19:40.071Z,0
2017-02-24T04:20:40.469Z,0
2017-02-24T04:21:40.442Z,0
2017-02-24T04:22:40.056Z,0
2017-02-24T04:23:40.410Z,0
2017-02-24T04:24:40.478Z,0
2017-02-24T04:25:40.401Z,0
2017-02-24T04:26:39.972Z,0
2017-02-24T04:27:40.349Z,0
2017-02-24T04:28:40.343Z,0
2017-02-24T04:29:40.336Z,0
2017-02-24T04:30:40.326Z,0
2017-02-24T04:31:39.890Z,0
2017-02-24T04:32:40.275Z,0
2017-02-24T04:33:40.264Z,0
2017-02-24T04:34:40.251Z,0
2017-02-24T04:35:40.227Z,0
2017-02-24T04:36:40.226Z,0
2017-02-24T04:37:40.206Z,0
2017-02-24T04:38:40.239Z,0
2017-02-24T04:39:40.176Z,0
2017-02-24T04:40:39.762Z,0
2017-02-24T04:41:40.190Z,0
2017-02-24T04:42:40.126Z,0
2017-02-24T04:43:40.134Z,0
2017-02-24T04:44:40.099Z,0
2017-02-24T04:45:40.096Z,0
2017-02-24T04:46:39.712Z,0
2017-02-24T04:47:40.079Z,0
2017-02-24T04:48:40.047Z,0
2017-02-24T04:49:40.044Z,0
2017-02-24T04:50:40.005Z,0
2017-02-24T04:51:39.992Z,0
2017-02-24T04:52:39.189Z,0
2017-02-24T04:53:39.573Z,0
2017-02-24T04:54:39.560Z,0
2017-02-24T04:55:39.945Z,0
2017-02-24T04:56:39.919Z,0
2017-02-24T04:57:39.900Z,0
2017-02-24T04:58:39.884Z,0
2017-02-24T04:59:39.878Z,0
2017-02-24T05:00:39.864Z,0
2017-02-24T05:01:39.850Z,0
2017-02-24T05:02:39.881Z,0
2017-02-24T05:03:39.818Z,0
2017-02-24T05:04:39.824Z,0
2017-02-24T05:05:39.778Z,0
2017-02-24T05:06:39.803Z,0
2017-02-24T05:07:39.752Z,0
2017-02-24T05:08:39.732Z,0
2017-02-24T05:09:39.722Z,0
2017-02-24T05:10:38.915Z,0
2017-02-24T05:11:39.700Z,0
2017-02-24T05:12:39.300Z,0
2017-02-24T05:13:39.666Z,0
2017-02-24T05:14:39.653Z,0
2017-02-24T05:15:39.632Z,0
2017-02-24T05:16:39.625Z,0
2017-02-24T05:17:39.616Z,0
2017-02-24T05:18:39.590Z,0
2017-02-24T05:19:39.575Z,0
2017-02-24T05:20:39.543Z,0
2017-02-24T05:21:39.555Z,0
2017-02-24T05:22:39.535Z,0
2017-02-24T05:23:39.134Z,0
2017-02-24T05:24:39.104Z,0
2017-02-24T05:25:39.470Z,0
2017-02-24T05:26:39.058Z,0
2017-02-24T05:27:38.668Z,0
2017-02-24T05:28:39.040Z,0
2017-02-24T05:29:39.013Z,0
2017-02-24T05:30:39.418Z,0
2017-02-24T05:31:39.012Z,0
2017-02-24T05:32:39.374Z,0
2017-02-24T05:33:38.966Z,0
2017-02-24T05:34:39.334Z,0
2017-02-24T05:35:38.921Z,0
2017-02-24T05:36:39.311Z,0
2017-02-24T05:37:39.302Z,0
2017-02-24T05:38:38.884Z,0
2017-02-24T05:39:39.253Z,0
2017-02-24T05:40:39.249Z,0
2017-02-24T05:41:39.233Z,0
2017-02-24T05:42:39.212Z,0
2017-02-24T05:43:39.195Z,0
2017-02-24T05:44:39.190Z,0
2017-02-24T05:45:39.179Z,0
2017-02-24T05:46:39.159Z,0
2017-02-24T05:47:39.181Z,0
2017-02-24T05:48:38.725Z,0
2017-02-24T05:49:39.129Z,0
2017-02-24T05:50:38.697Z,0
2017-02-24T05:51:38.682Z,0
2017-02-24T05:52:38.671Z,0
2017-02-24T05:53:38.667Z,0
2017-02-24T05:54:38.621Z,0
2017-02-24T05:55:39.022Z,0
2017-02-24T05:56:38.999Z,0
2017-02-24T05:57:38.590Z,0
2017-02-24T05:58:38.570Z,0
2017-02-24T05:59:38.557Z,0
2017-02-24T06:00:38.950Z,0
2017-02-24T06:01:38.915Z,0
2017-02-24T06:02:38.917Z,0
2017-02-24T06:03:38.895Z,5
2017-02-24T06:04:38.875Z,5
2017-02-24T06:05:38.867Z,5
2017-02-24T06:06:38.858Z,5
2017-02-24T06:07:38.843Z,0
2017-02-24T06:08:38.827Z,0
2017-02-24T06:09:38.801Z,0
2017-02-24T06:10:38.782Z,5
2017-02-24T06:11:38.787Z,5
2017-02-24T06:12:38.753Z,10
2017-02-24T06:13:38.737Z,10
2017-02-24T06:14:38.718Z,10
2017-02-24T06:15:38.704Z,10
2017-02-24T06:16:38.716Z,5
2017-02-24T06:17:38.680Z,5
2017-02-24T06:18:38.680Z,5
2017-02-24T06:19:38.250Z,5
2017-02-24T06:20:38.620Z,5
2017-02-24T06:21:38.634Z,10
2017-02-24T06:22:38.595Z,15
2017-02-24T06:23:38.596Z,15
2017-02-24T06:24:38.564Z,15
2017-02-24T06:25:38.584Z,10
2017-02-24T06:26:38.140Z,15
2017-02-24T06:27:38.530Z,15
2017-02-24T06:28:38.520Z,20
2017-02-24T06:29:38.505Z,20
2017-02-24T06:30:38.471Z,25
2017-02-24T06:31:38.465Z,25
2017-02-24T06:32:38.443Z,25
2017-02-24T06:33:38.422Z,25
2017-02-24T06:34:38.413Z,30
2017-02-24T06:35:38.411Z,35
2017-02-24T06:36:38.375Z,35
2017-02-24T06:37:37.966Z,35
2017-02-24T06:38:37.956Z,35
2017-02-24T06:39:38.325Z,30
2017-02-24T06:40:38.329Z,30
2017-02-24T06:41:37.516Z,30
2017-02-24T06:42:38.274Z,25
2017-02-24T06:43:38.267Z,20
2017-02-24T06:44:37.852Z,25
2017-02-24T06:45:38.237Z,25
2017-02-24T06:46:38.223Z,25
2017-02-24T06:47:38.200Z,25
2017-02-24T06:48:38.192Z,25
2017-02-24T06:49:38.209Z,25
2017-02-24T06:50:38.154Z,25
2017-02-24T06:51:38.163Z,20
2017-02-24T06:52:38.121Z,20
2017-02-24T06:53:38.109Z,25
2017-02-24T06:54:37.692Z,25
2017-02-24T06:55:37.677Z,40
2017-02-24T06:56:38.066Z,50
2017-02-24T06:57:38.042Z,55
2017-02-24T06:58:37.243Z,55
2017-02-24T06:59:37.637Z,55
2017-02-24T07:00:37.628Z,60
2017-02-24T07:01:37.604Z,60
2017-02-24T07:02:37.609Z,65
2017-02-24T07:03:37.561Z,60
2017-02-24T07:04:37.950Z,60
2017-02-24T07:05:37.935Z,50
2017-02-24T07:06:37.118Z,45
2017-02-24T07:07:37.102Z,40
2017-02-24T07:08:37.505Z,40
2017-02-24T07:09:37.473Z,30
2017-02-24T07:10:37.503Z,30
2017-02-24T07:11:37.829Z,25
2017-02-24T07:12:37.813Z,30
2017-02-24T07:13:37.021Z,35
2017-02-24T07:14:37.774Z,40
2017-02-24T07:15:37.768Z,40
2017-02-24T07:16:37.769Z,40
2017-02-24T07:17:37.739Z,30
2017-02-24T07:18:37.717Z,30
2017-02-24T07:19:37.711Z,35
2017-02-24T07:20:37.679Z,35
2017-02-24T07:21:37.660Z,45
2017-02-24T07:22:37.659Z,65
2017-02-24T07:23:37.255Z,75
2017-02-24T07:24:37.620Z,70
2017-02-24T07:25:37.613Z,70
2017-02-24T07:26:37.593Z,60
2017-02-24T07:27:37.569Z,55
2017-02-24T07:28:37.596Z,50
2017-02-24T07:29:37.541Z,55
2017-02-24T07:30:37.547Z,70
2017-02-24T07:31:37.111Z,75
2017-02-24T07:32:37.508Z,75
2017-02-24T07:33:37.501Z,70
2017-02-24T07:34:37.473Z,60
2017-02-24T07:35:37.071Z,65
2017-02-24T07:36:36.673Z,75
2017-02-24T07:37:37.428Z,90
2017-02-24T07:38:37.423Z,110
2017-02-24T07:39:36.608Z,110
2017-02-24T07:40:36.973Z,100
2017-02-24T07:41:36.974Z,105
2017-02-24T07:42:36.962Z,120
2017-02-24T07:43:36.929Z,130
2017-02-24T07:44:37.323Z,125
2017-02-24T07:45:36.910Z,95
2017-02-24T07:46:36.884Z,90
2017-02-24T07:47:37.297Z,95
2017-02-24T07:48:36.848Z,125
2017-02-24T07:49:36.846Z,135
2017-02-24T07:50:37.241Z,150
2017-02-24T07:51:37.220Z,180
2017-02-24T07:52:36.800Z,200
2017-02-24T07:53:36.781Z,210
2017-02-24T07:54:36.779Z,175
2017-02-24T07:55:36.750Z,160
2017-02-24T07:56:37.137Z,160
2017-02-24T07:57:36.747Z,135
2017-02-24T07:58:36.718Z,85
2017-02-24T07:59:37.089Z,85
2017-02-24T08:00:36.684Z,95
2017-02-24T08:01:36.267Z,100
2017-02-24T08:02:37.059Z,120
2017-02-24T08:03:37.033Z,125
2017-02-24T08:04:37.019Z,145
2017-02-24T08:05:36.619Z,170
2017-02-24T08:06:37.058Z,185
2017-02-24T08:07:36.582Z,225
2017-02-24T08:08:36.958Z,185
2017-02-24T08:09:36.544Z,140
2017-02-24T08:10:36.939Z,130
2017-02-24T08:11:36.902Z,120
2017-02-24T08:12:36.915Z,105
2017-02-24T08:13:36.878Z,110
2017-02-24T08:14:36.898Z,95
2017-02-24T08:15:36.868Z,80
2017-02-24T08:16:36.857Z,80
2017-02-24T08:17:36.844Z,80
2017-02-24T08:18:36.827Z,60
2017-02-24T08:19:36.801Z,50
2017-02-24T08:20:36.396Z,50
2017-02-24T08:21:36.775Z,45
2017-02-24T08:22:36.743Z,35
2017-02-24T08:23:36.328Z,35
2017-02-24T08:24:36.721Z,105
2017-02-24T08:25:36.711Z,160
2017-02-24T08:26:36.711Z,205
2017-02-24T08:27:36.668Z,220
2017-02-24T08:28:36.673Z,225
2017-02-24T08:29:36.249Z,225
2017-02-24T08:30:36.645Z,225
2017-02-24T08:31:36.613Z,215
2017-02-24T08:32:36.610Z,215
2017-02-24T08:33:36.586Z,210
2017-02-24T08:34:36.582Z,205
2017-02-24T08:35:36.553Z,205
2017-02-24T08:36:36.538Z,195
2017-02-24T08:37:35.723Z,185
2017-02-24T08:38:36.508Z,180
2017-02-24T08:39:36.083Z,175
2017-02-24T08:40:36.089Z,145
2017-02-24T08:41:36.475Z,95
2017-02-24T08:42:36.432Z,110
2017-02-24T08:43:36.025Z,145
2017-02-24T08:44:36.407Z,155
2017-02-24T08:45:36.408Z,150
2017-02-24T08:46:36.388Z,160
2017-02-24T08:47:36.352Z,155
2017-02-24T08:48:36.349Z,135
2017-02-24T08:49:36.334Z,120
2017-02-24T08:50:36.319Z,105
2017-02-24T08:51:36.318Z,105
2017-02-24T08:52:36.308Z,110
2017-02-24T08:53:36.286Z,115
2017-02-24T08:54:36.270Z,120
2017-02-24T08:55:36.231Z,125
2017-02-24T08:56:36.230Z,145
2017-02-24T08:57:36.216Z,175
2017-02-24T08:58:35.391Z,205
2017-02-24T08:59:36.218Z,215
2017-02-24T09:00:36.181Z,225
2017-02-24T09:01:35.410Z,225
2017-02-24T09:02:35.726Z,250
2017-02-24T09:03:35.716Z,265
2017-02-24T09:04:36.092Z,275
2017-02-24T09:05:36.085Z,265
2017-02-24T09:06:36.070Z,300
2017-02-24T09:07:36.045Z,255
2017-02-24T09:08:35.249Z,290
2017-02-24T09:09:36.046Z,255
2017-02-24T09:10:36.006Z,265
2017-02-24T09:11:35.989Z,295
2017-02-24T09:12:35.978Z,240
2017-02-24T09:13:35.549Z,240
2017-02-24T09:14:35.953Z,240
2017-02-24T09:15:35.928Z,230
2017-02-24T09:16:35.910Z,220
2017-02-24T09:17:35.895Z,215
2017-02-24T09:18:35.897Z,220
2017-02-24T09:19:35.461Z,250
2017-02-24T09:20:35.861Z,230
2017-02-24T09:21:35.441Z,225
2017-02-24T09:22:35.807Z,165
2017-02-24T09:23:35.818Z,160
2017-02-24T09:24:35.783Z,165
2017-02-24T09:25:35.371Z,145
2017-02-24T09:26:35.767Z,135
2017-02-24T09:27:35.744Z,145
2017-02-24T09:28:35.733Z,175
2017-02-24T09:29:35.753Z,215
2017-02-24T09:30:35.692Z,205
2017-02-24T09:31:35.297Z,205
2017-02-24T09:32:35.269Z,200
2017-02-24T09:33:34.876Z,205
2017-02-24T09:34:35.258Z,210
2017-02-24T09:35:35.227Z,205
2017-02-24T09:36:35.216Z,205
2017-02-24T09:37:35.597Z,210
2017-02-24T09:38:35.572Z,200
2017-02-24T09:39:35.561Z,180
2017-02-24T09:40:35.141Z,160
2017-02-24T09:41:35.542Z,145
2017-02-24T09:42:35.514Z,135
2017-02-24T09:43:35.116Z,145
2017-02-24T09:44:35.491Z,140
2017-02-24T09:45:35.475Z,150
2017-02-24T09:46:35.473Z,160
2017-02-24T09:47:35.429Z,175
2017-02-24T09:48:35.436Z,195
2017-02-24T09:49:35.428Z,180
2017-02-24T09:50:35.405Z,175
2017-02-24T09:51:35.383Z,185
2017-02-24T09:52:35.356Z,175
2017-02-24T09:53:34.964Z,195
2017-02-24T09:54:34.931Z,215
2017-02-24T09:55:35.321Z,175
2017-02-24T09:56:35.300Z,180
2017-02-24T09:57:35.296Z,175
2017-02-24T09:58:34.892Z,165
2017-02-24T09:59:35.255Z,170
2017-02-24T10:00:35.257Z,190
2017-02-24T10:01:35.232Z,180
2017-02-24T10:02:35.230Z,175
2017-02-24T10:03:35.215Z,170
2017-02-24T10:04:34.774Z,155
2017-02-24T10:05:35.157Z,150
2017-02-24T10:06:35.145Z,155
2017-02-24T10:07:34.773Z,160
2017-02-24T10:08:35.114Z,190
2017-02-24T10:09:35.114Z,205
2017-02-24T10:10:35.092Z,210
2017-02-24T10:11:35.071Z,210
2017-02-24T10:12:35.076Z,220
2017-02-24T10:13:35.038Z,220
2017-02-24T10:14:35.040Z,235
2017-02-24T10:15:34.607Z,255
2017-02-24T10:16:34.996Z,240
2017-02-24T10:17:34.984Z,245
2017-02-24T10:18:34.972Z,235
2017-02-24T10:19:34.945Z,255
2017-02-24T10:20:34.950Z,275
2017-02-24T10:21:34.130Z,255
2017-02-24T10:22:34.913Z,225
2017-02-24T10:23:34.501Z,235
2017-02-24T10:24:34.878Z,245
2017-02-24T10:25:34.860Z,275
2017-02-24T10:26:34.857Z,285
2017-02-24T10:27:34.440Z,265
2017-02-24T10:28:34.841Z,235
2017-02-24T10:29:34.809Z,195
2017-02-24T10:30:34.398Z,180
2017-02-24T10:31:34.387Z,185
2017-02-24T10:32:34.771Z,190
2017-02-24T10:33:34.766Z,180
2017-02-24T10:34:34.746Z,180
2017-02-24T10:35:34.725Z,200
2017-02-24T10:36:33.916Z,230
2017-02-24T10:37:34.677Z,245
2017-02-24T10:38:34.684Z,240
2017-02-24T10:39:33.879Z,230
2017-02-24T10:40:34.666Z,230
2017-02-24T10:41:34.625Z,205
2017-02-24T10:42:34.618Z,180
2017-02-24T10:43:34.603Z,160
2017-02-24T10:44:34.575Z,150
2017-02-24T10:45:34.566Z,140
2017-02-24T10:46:34.552Z,130
2017-02-24T10:47:34.524Z,130
2017-02-24T10:48:34.515Z,125
2017-02-24T10:49:34.496Z,125
2017-02-24T10:50:34.528Z,120
2017-02-24T10:51:34.482Z,120
2017-02-24T10:52:34.063Z,125
2017-02-24T10:53:34.440Z,125
2017-02-24T10:54:34.427Z,130
2017-02-24T10:55:34.024Z,130
2017-02-24T10:56:33.604Z,145
2017-02-24T10:57:34.378Z,130
2017-02-24T10:58:34.357Z,130
2017-02-24T10:59:34.369Z,135
2017-02-24T11:00:34.358Z,145
2017-02-24T11:01:34.376Z,160
2017-02-24T11:02:34.329Z,190
2017-02-24T11:03:34.302Z,235
2017-02-24T11:04:34.353Z,255
2017-02-24T11:05:34.269Z,255
2017-02-24T11:06:33.853Z,270
2017-02-24T11:07:34.233Z,270
2017-02-24T11:08:33.827Z,250
2017-02-24T11:09:33.840Z,230
2017-02-24T11:10:33.819Z,230
2017-02-24T11:11:34.186Z,220
2017-02-24T11:12:34.156Z,205
2017-02-24T11:13:34.154Z,190
2017-02-24T11:14:33.725Z,170
2017-02-24T11:15:34.122Z,165
2017-02-24T11:16:34.106Z,170
2017-02-24T11:17:34.086Z,165
2017-02-24T11:18:34.102Z,165
2017-02-24T11:19:34.077Z,160
2017-02-24T11:20:33.274Z,165
2017-02-24T11:21:34.033Z,170
2017-02-24T11:22:34.011Z,200
2017-02-24T11:23:34.011Z,230
2017-02-24T11:24:33.994Z,260
2017-02-24T11:25:33.977Z,275
2017-02-24T11:26:33.977Z,305
2017-02-24T11:27:33.963Z,335
2017-02-24T11:28:33.154Z,360
2017-02-24T11:29:33.518Z,345
2017-02-24T11:30:33.926Z,300
2017-02-24T11:31:33.893Z,255
2017-02-24T11:32:33.502Z,230
2017-02-24T11:33:33.873Z,250
2017-02-24T11:34:33.843Z,265
2017-02-24T11:35:33.432Z,265
2017-02-24T11:36:33.812Z,245
2017-02-24T11:37:33.814Z,245
2017-02-24T11:38:33.818Z,260
2017-02-24T11:39:33.381Z,260
2017-02-24T11:40:33.794Z,275
2017-02-24T11:41:33.761Z,255
2017-02-24T11:42:33.763Z,235
2017-02-24T11:43:33.341Z,215
2017-02-24T11:44:33.727Z,185
2017-02-24T11:45:33.700Z,170
2017-02-24T11:46:33.681Z,180
2017-02-24T11:47:33.691Z,175
2017-02-24T11:48:33.655Z,175
2017-02-24T11:49:33.273Z,185
2017-02-24T11:50:33.267Z,185
2017-02-24T11:51:33.620Z,170
2017-02-24T11:52:33.620Z,155
2017-02-24T11:53:33.601Z,160
2017-02-24T11:54:33.186Z,170
2017-02-24T11:55:33.169Z,190
2017-02-24T11:56:32.762Z,210
2017-02-24T11:57:33.156Z,215
2017-02-24T11:58:33.530Z,215
2017-02-24T11:59:33.132Z,210
2017-02-24T12:00:33.489Z,190
2017-02-24T12:01:33.479Z,160
2017-02-24T12:02:33.062Z,145
2017-02-24T12:03:33.469Z,145
2017-02-24T12:04:33.037Z,155
2017-02-24T12:05:33.417Z,160
2017-02-24T12:06:33.426Z,175
2017-02-24T12:07:33.000Z,195
2017-02-24T12:08:33.388Z,200
2017-02-24T12:09:33.376Z,185
2017-02-24T12:10:33.355Z,160
2017-02-24T12:11:32.971Z,145
2017-02-24T12:12:33.343Z,145
2017-02-24T12:13:33.318Z,175
2017-02-24T12:14:33.323Z,205
2017-02-24T12:15:33.286Z,230
2017-02-24T12:16:33.269Z,235
2017-02-24T12:17:33.257Z,235
2017-02-24T12:18:33.248Z,255
2017-02-24T12:19:32.871Z,260
2017-02-24T12:20:33.215Z,255
2017-02-24T12:21:33.209Z,235
2017-02-24T12:22:32.383Z,225
2017-02-24T12:23:33.173Z,230
2017-02-24T12:24:33.149Z,235
2017-02-24T12:25:32.751Z,225
2017-02-24T12:26:33.140Z,205
2017-02-24T12:27:33.120Z,185
2017-02-24T12:28:32.696Z,180
2017-02-24T12:29:33.092Z,160
2017-02-24T12:30:33.070Z,145
2017-02-24T12:31:33.059Z,130
2017-02-24T12:32:33.049Z,110
2017-02-24T12:33:33.065Z,105
2017-02-24T12:34:33.131Z,110
2017-02-24T12:35:33.301Z,100
2017-02-24T12:36:32.747Z,105
2017-02-24T12:37:33.439Z,125
2017-02-24T12:38:33.693Z,150
2017-02-24T12:39:33.813Z,150
2017-02-24T12:40:33.082Z,130
2017-02-24T12:41:33.171Z,105
2017-02-24T12:42:33.542Z,95
2017-02-24T12:43:33.159Z,100
2017-02-24T12:44:32.601Z,110
2017-02-24T12:45:33.365Z,120
2017-02-24T12:46:33.152Z,120
2017-02-24T12:47:33.492Z,120
2017-02-24T12:48:33.044Z,145
2017-02-24T12:49:33.355Z,180
2017-02-24T12:50:32.608Z,185
2017-02-24T12:51:33.329Z,200
2017-02-24T12:52:32.398Z,205
2017-02-24T12:53:32.996Z,215
2017-02-24T12:54:33.532Z,205
2017-02-24T12:55:33.185Z,180
2017-02-24T12:56:33.421Z,175
2017-02-24T12:57:33.391Z,185
2017-02-24T12:58:32.544Z,180
2017-02-24T12:59:32.767Z,180
2017-02-24T13:00:32.756Z,180
2017-02-24T13:01:33.238Z,185
2017-02-24T13:02:33.013Z,195
2017-02-24T13:03:32.179Z,205
2017-02-24T13:04:33.088Z,205
2017-02-24T13:05:33.197Z,205
2017-02-24T13:06:32.632Z,215
2017-02-24T13:07:32.123Z,205
2017-02-24T13:08:32.389Z,195
2017-02-24T13:09:33.475Z,175
2017-02-24T13:10:32.436Z,155
2017-02-24T13:11:32.494Z,135
2017-02-24T13:12:33.418Z,130
2017-02-24T13:13:32.499Z,125
2017-02-24T13:14:33.514Z,100
2017-02-24T13:15:33.395Z,75
2017-02-24T13:16:32.001Z,70
2017-02-24T13:17:32.389Z,75
2017-02-24T13:18:32.388Z,100
2017-02-24T13:19:32.355Z,135
2017-02-24T13:20:32.341Z,165
2017-02-24T13:21:32.316Z,170
2017-02-24T13:22:31.914Z,160
2017-02-24T13:23:32.288Z,155
2017-02-24T13:24:32.285Z,155
2017-02-24T13:25:32.260Z,135
2017-02-24T13:26:31.871Z,135
2017-02-24T13:27:31.861Z,140
2017-02-24T13:28:31.828Z,130
2017-02-24T13:29:31.815Z,110
2017-02-24T13:30:32.182Z,95
2017-02-24T13:31:32.192Z,90
2017-02-24T13:32:32.165Z,85
2017-02-24T13:33:32.172Z,85
2017-02-24T13:34:31.736Z,100
2017-02-24T13:35:32.128Z,155
2017-02-24T13:36:32.102Z,230
2017-02-24T13:37:31.692Z,250
2017-02-24T13:38:32.080Z,245
2017-02-24T13:39:31.663Z,240
2017-02-24T13:40:31.693Z,235
2017-02-24T13:41:32.041Z,235
2017-02-24T13:42:32.010Z,240
2017-02-24T13:43:32.142Z,240
2017-02-24T13:44:32.077Z,240
2017-02-24T13:45:31.587Z,230
2017-02-24T13:46:31.985Z,220
2017-02-24T13:47:32.609Z,200
2017-02-24T13:48:32.068Z,175
2017-02-24T13:49:31.670Z,140
2017-02-24T13:50:31.915Z,115
2017-02-24T13:51:31.636Z,90
2017-02-24T13:52:31.872Z,95
2017-02-24T13:53:31.867Z,130
2017-02-24T13:54:31.843Z,155
2017-02-24T13:55:31.426Z,170
2017-02-24T13:56:31.812Z,170
2017-02-24T13:57:31.806Z,185
2017-02-24T13:58:31.800Z,185
2017-02-24T13:59:31.377Z,180
2017-02-24T14:00:31.775Z,170
2017-02-24T14:01:31.735Z,155
2017-02-24T14:02:31.722Z,145
2017-02-24T14:03:30.910Z,145
2017-02-24T14:04:31.700Z,140
2017-02-24T14:05:31.665Z,140
2017-02-24T14:06:31.686Z,145
2017-02-24T14:07:30.873Z,145
2017-02-24T14:08:31.637Z,145
2017-02-24T14:09:31.631Z,150
2017-02-24T14:10:31.620Z,150
2017-02-24T14:11:31.585Z,150
2017-02-24T14:12:31.591Z,150
2017-02-24T14:13:31.561Z,145
2017-02-24T14:14:31.559Z,145
2017-02-24T14:15:31.544Z,140